createdAt,value
2024-01-12T00:00:20.447Z,0.26
2024-01-12T00:00:53.129Z,0.28
2024-01-12T00:01:25.798Z,0.26
2024-01-12T00:01:58.553Z,0.24
2024-01-12T00:02:31.330Z,0.26
2024-01-12T00:03:04.099Z,0.26
2024-01-12T00:03:36.806Z,0.28
2024-01-12T00:04:09.513Z,0.24
2024-01-12T00:04:42.198Z,0.24
2024-01-12T00:05:15.110Z,0.28
2024-01-12T00:05:41.446Z,0.26
2024-01-12T00:06:14.234Z,0.28
2024-01-12T00:06:47.013Z,0.28
2024-01-12T00:07:19.862Z,0.28
2024-01-12T00:07:52.552Z,0.24
2024-01-12T00:08:25.239Z,0.28
2024-01-12T00:08:58.009Z,0.26
2024-01-12T00:09:30.836Z,0.26
2024-01-12T00:10:03.469Z,0.26
2024-01-12T00:10:36.140Z,0.24
2024-01-12T00:11:08.814Z,0.28
2024-01-12T00:11:41.555Z,0.26
2024-01-12T00:12:14.247Z,0.24
2024-01-12T00:12:46.912Z,0.26
2024-01-12T00:13:19.586Z,0.24
2024-01-12T00:13:52.244Z,0.24
2024-01-12T00:14:24.949Z,0.26
2024-01-12T00:14:57.740Z,0.23
2024-01-12T00:15:30.495Z,0.24
2024-01-12T00:16:03.140Z,0.24
2024-01-12T00:16:35.810Z,0.24
2024-01-12T00:17:08.486Z,0.24
2024-01-12T00:17:41.218Z,0.26
2024-01-12T00:18:13.994Z,0.26
2024-01-12T00:18:46.789Z,0.24
2024-01-12T00:19:19.463Z,0.24
2024-01-12T00:19:52.125Z,0.24
2024-01-12T00:20:24.842Z,0.24
2024-01-12T00:20:57.594Z,0.24
2024-01-12T00:21:30.324Z,0.24
2024-01-12T00:22:02.989Z,0.24
2024-01-12T00:22:35.643Z,0.24
2024-01-12T00:23:08.313Z,0.23
2024-01-12T00:23:41.145Z,0.23
2024-01-12T00:24:13.828Z,0.23
2024-01-12T00:24:46.504Z,0.23
2024-01-12T00:25:19.176Z,0.21
2024-01-12T00:25:51.852Z,0.23
2024-01-12T00:26:24.537Z,0.21
2024-01-12T00:26:57.238Z,0.23
2024-01-12T00:27:29.917Z,0.23
2024-01-12T00:28:02.590Z,0.23
2024-01-12T00:28:35.286Z,0.24
2024-01-12T00:29:07.923Z,0.21
2024-01-12T00:29:40.635Z,0.23
2024-01-12T00:30:13.370Z,0.24
2024-01-12T00:30:46.065Z,0.23
2024-01-12T00:31:18.713Z,0.23
2024-01-12T00:31:51.405Z,0.23
2024-01-12T00:32:24.125Z,0.24
2024-01-12T00:32:56.911Z,0.24
2024-01-12T00:33:29.758Z,0.24
2024-01-12T00:34:02.638Z,0.24
2024-01-12T00:34:35.356Z,0.24
2024-01-12T00:35:08.007Z,0.23
2024-01-12T00:35:40.763Z,0.23
2024-01-12T00:36:13.425Z,0.23
2024-01-12T00:36:46.097Z,0.24
2024-01-12T00:37:18.760Z,0.23
2024-01-12T00:37:51.444Z,0.26
2024-01-12T00:38:24.129Z,0.21
2024-01-12T00:38:56.855Z,0.23
2024-01-12T00:39:29.521Z,0.23
2024-01-12T00:40:02.201Z,0.24
2024-01-12T00:40:34.873Z,0.24
2024-01-12T00:41:07.559Z,0.24
2024-01-12T00:41:40.245Z,0.24
2024-01-12T00:42:12.911Z,0.24
2024-01-12T00:42:45.587Z,0.26
2024-01-12T00:43:18.264Z,0.23
2024-01-12T00:43:50.944Z,0.23
2024-01-12T00:44:23.658Z,0.23
2024-01-12T00:44:56.430Z,0.23
2024-01-12T00:45:29.156Z,0.24
2024-01-12T00:46:01.827Z,0.24
2024-01-12T00:46:34.529Z,0.24
2024-01-12T00:47:07.186Z,0.24
2024-01-12T00:47:39.915Z,0.26
2024-01-12T00:48:12.716Z,0.26
2024-01-12T00:48:45.536Z,0.24
2024-01-12T00:49:18.346Z,0.26
2024-01-12T00:49:51.068Z,0.26
2024-01-12T00:50:23.773Z,0.26
2024-01-12T00:50:56.504Z,0.28
2024-01-12T00:51:29.213Z,0.24
2024-01-12T00:52:01.889Z,0.26
2024-01-12T00:52:34.546Z,0.24
2024-01-12T00:53:07.244Z,0.26
2024-01-12T00:53:38.352Z,0.26
2024-01-12T00:54:10.991Z,0.26
2024-01-12T00:54:43.670Z,0.26
2024-01-12T00:55:16.360Z,0.26
2024-01-12T00:55:49.089Z,0.26
2024-01-12T00:56:21.799Z,0.28
2024-01-12T00:56:54.544Z,0.24
2024-01-12T00:57:27.214Z,0.24
2024-01-12T00:57:59.869Z,0.26
2024-01-12T00:58:32.539Z,0.28
2024-01-12T00:59:05.209Z,0.28
2024-01-12T00:59:37.881Z,0.28
2024-01-12T01:00:10.580Z,0.26
2024-01-12T01:00:43.240Z,0.26
2024-01-12T01:01:15.946Z,0.26
2024-01-12T01:01:50.463Z,0.28
2024-01-12T01:02:18.038Z,0.26
2024-01-12T01:02:50.896Z,0.24
2024-01-12T01:03:23.625Z,0.26
2024-01-12T01:03:56.357Z,0.26
2024-01-12T01:04:29.027Z,0.26
2024-01-12T01:05:01.752Z,0.28
2024-01-12T01:05:34.469Z,0.26
2024-01-12T01:06:07.248Z,0.28
2024-01-12T01:06:33.894Z,0.29
2024-01-12T01:07:06.626Z,0.28
2024-01-12T01:07:39.284Z,0.31
2024-01-12T01:08:11.976Z,0.28
2024-01-12T01:08:44.747Z,0.28
2024-01-12T01:09:17.418Z,0.28
2024-01-12T01:09:50.082Z,0.29
2024-01-12T01:10:22.750Z,0.26
2024-01-12T01:10:55.450Z,0.29
2024-01-12T01:11:28.165Z,0.31
2024-01-12T01:12:00.838Z,0.28
2024-01-12T01:12:33.505Z,0.31
2024-01-12T01:13:06.166Z,0.29
2024-01-12T01:13:38.833Z,0.29
2024-01-12T01:14:11.529Z,0.28
2024-01-12T01:14:44.262Z,0.29
2024-01-12T01:15:16.958Z,0.29
2024-01-12T01:15:49.640Z,0.28
2024-01-12T01:16:22.323Z,0.29
2024-01-12T01:16:55.098Z,0.28
2024-01-12T01:17:27.875Z,0.29
2024-01-12T01:18:00.768Z,0.29
2024-01-12T01:18:36.989Z,0.29
2024-01-12T01:19:03.918Z,0.31
2024-01-12T01:19:36.751Z,0.31
2024-01-12T01:20:09.441Z,0.29
2024-01-12T01:20:42.153Z,0.29
2024-01-12T01:21:14.793Z,0.29
2024-01-12T01:21:47.486Z,0.31
2024-01-12T01:22:20.149Z,0.31
2024-01-12T01:22:52.797Z,0.31
2024-01-12T01:23:25.529Z,0.31
2024-01-12T01:23:58.458Z,0.31
2024-01-12T01:24:31.176Z,0.29
2024-01-12T01:25:03.874Z,0.31
2024-01-12T01:25:36.535Z,0.32
2024-01-12T01:26:09.211Z,0.32
2024-01-12T01:26:41.928Z,0.31
2024-01-12T01:27:14.583Z,0.31
2024-01-12T01:27:47.252Z,0.32
2024-01-12T01:28:19.931Z,0.32
2024-01-12T01:28:52.602Z,0.31
2024-01-12T01:29:25.329Z,0.32
2024-01-12T01:29:58.063Z,0.31
2024-01-12T01:30:30.795Z,0.32
2024-01-12T01:31:03.521Z,0.31
2024-01-12T01:31:36.238Z,0.31
2024-01-12T01:32:08.901Z,0.32
2024-01-12T01:32:41.784Z,0.31
2024-01-12T01:33:08.140Z,0.31
2024-01-12T01:33:40.964Z,0.31
2024-01-12T01:34:14.106Z,0.32
2024-01-12T01:34:40.504Z,0.32
2024-01-12T01:35:13.282Z,0.31
2024-01-12T01:35:46.014Z,0.31
2024-01-12T01:36:18.698Z,0.31
2024-01-12T01:36:51.362Z,0.32
2024-01-12T01:37:24.032Z,0.31
2024-01-12T01:37:56.694Z,0.31
2024-01-12T01:38:29.419Z,0.31
2024-01-12T01:39:02.178Z,0.32
2024-01-12T01:39:34.854Z,0.33
2024-01-12T01:40:07.553Z,0.32
2024-01-12T01:40:40.216Z,0.31
2024-01-12T01:41:12.932Z,0.32
2024-01-12T01:41:45.704Z,0.32
2024-01-12T01:42:18.365Z,0.31
2024-01-12T01:42:51.025Z,0.32
2024-01-12T01:43:23.716Z,0.32
2024-01-12T01:43:56.354Z,0.31
2024-01-12T01:44:29.054Z,0.31
2024-01-12T01:45:01.767Z,0.32
2024-01-12T01:45:34.466Z,0.31
2024-01-12T01:46:07.132Z,0.32
2024-01-12T01:46:39.796Z,0.31
2024-01-12T01:47:12.534Z,0.32
2024-01-12T01:47:45.276Z,0.32
2024-01-12T01:48:17.982Z,0.31
2024-01-12T01:48:50.647Z,0.31
2024-01-12T01:49:21.728Z,0.31
2024-01-12T01:49:54.416Z,0.29
2024-01-12T01:50:27.124Z,0.29
2024-01-12T01:50:59.856Z,0.31
2024-01-12T01:51:32.526Z,0.31
2024-01-12T01:52:05.199Z,0.31
2024-01-12T01:52:38.040Z,0.29
2024-01-12T01:53:10.716Z,0.33
2024-01-12T01:53:43.435Z,0.32
2024-01-12T01:54:16.095Z,0.31
2024-01-12T01:54:48.777Z,0.29
2024-01-12T01:55:21.458Z,0.31
2024-01-12T01:55:54.136Z,0.31
2024-01-12T01:56:26.848Z,0.31
2024-01-12T01:56:59.633Z,0.32
2024-01-12T01:57:32.330Z,0.33
2024-01-12T01:58:05.007Z,0.32
2024-01-12T01:58:32.044Z,0.31
2024-01-12T01:59:04.722Z,0.32
2024-01-12T01:59:37.431Z,0.31
2024-01-12T02:00:10.123Z,0.31
2024-01-12T02:00:42.790Z,0.32
2024-01-12T02:01:15.482Z,0.33
2024-01-12T02:01:48.166Z,0.32
2024-01-12T02:02:20.844Z,0.32
2024-01-12T02:02:53.591Z,0.33
2024-01-12T02:03:29.240Z,0.33
2024-01-12T02:03:55.822Z,0.33
2024-01-12T02:04:28.505Z,0.32
2024-01-12T02:05:01.191Z,0.35
2024-01-12T02:05:34.076Z,0.33
2024-01-12T02:06:06.912Z,0.32
2024-01-12T02:06:39.768Z,0.35
2024-01-12T02:07:12.506Z,0.33
2024-01-12T02:07:45.190Z,0.33
2024-01-12T02:08:17.906Z,0.32
2024-01-12T02:08:50.709Z,0.32
2024-01-12T02:09:23.398Z,0.31
2024-01-12T02:09:56.106Z,0.31
2024-01-12T02:10:28.771Z,0.31
2024-01-12T02:11:01.439Z,0.29
2024-01-12T02:11:34.159Z,0.29
2024-01-12T02:12:06.822Z,0.28
2024-01-12T02:12:39.504Z,0.29
2024-01-12T02:13:12.184Z,0.29
2024-01-12T02:13:44.870Z,0.31
2024-01-12T02:14:17.569Z,0.31
2024-01-12T02:14:50.283Z,0.29
2024-01-12T02:15:22.933Z,0.29
2024-01-12T02:15:55.693Z,0.29
2024-01-12T02:16:28.346Z,0.31
2024-01-12T02:17:01.033Z,0.31
2024-01-12T02:17:33.752Z,0.32
2024-01-12T02:18:06.555Z,0.32
2024-01-12T02:18:39.333Z,0.31
2024-01-12T02:19:12.133Z,0.32
2024-01-12T02:19:44.929Z,0.32
2024-01-12T02:20:17.738Z,0.31
2024-01-12T02:20:50.602Z,0.33
2024-01-12T02:21:23.307Z,0.32
2024-01-12T02:21:55.984Z,0.33
2024-01-12T02:22:28.652Z,0.32
2024-01-12T02:23:01.316Z,0.33
2024-01-12T02:23:34.008Z,0.33
2024-01-12T02:24:06.709Z,0.35
2024-01-12T02:24:39.536Z,0.33
2024-01-12T02:25:12.217Z,0.33
2024-01-12T02:25:44.940Z,0.35
2024-01-12T02:26:17.631Z,0.35
2024-01-12T02:26:50.307Z,0.35
2024-01-12T02:27:22.980Z,0.33
2024-01-12T02:27:55.672Z,0.33
2024-01-12T02:28:28.340Z,0.33
2024-01-12T02:29:01.011Z,0.32
2024-01-12T02:29:33.761Z,0.32
2024-01-12T02:30:06.621Z,0.32
2024-01-12T02:30:33.025Z,0.33
2024-01-12T02:31:05.797Z,0.32
2024-01-12T02:31:38.442Z,0.33
2024-01-12T02:32:11.112Z,0.32
2024-01-12T02:32:43.790Z,0.32
2024-01-12T02:33:16.558Z,0.35
2024-01-12T02:33:49.522Z,0.33
2024-01-12T02:34:15.800Z,0.32
2024-01-12T02:34:48.489Z,0.31
2024-01-12T02:35:21.192Z,0.32
2024-01-12T02:35:53.981Z,0.33
2024-01-12T02:36:26.710Z,0.32
2024-01-12T02:36:53.365Z,0.31
2024-01-12T02:37:26.039Z,0.32
2024-01-12T02:37:58.703Z,0.33
2024-01-12T02:38:31.380Z,0.33
2024-01-12T02:39:04.088Z,0.32
2024-01-12T02:39:36.734Z,0.33
2024-01-12T02:40:09.419Z,0.32
2024-01-12T02:40:42.086Z,0.33
2024-01-12T02:41:14.963Z,0.35
2024-01-12T02:41:47.680Z,0.32
2024-01-12T02:42:20.314Z,0.33
2024-01-12T02:42:52.990Z,0.35
2024-01-12T02:43:25.660Z,0.33
2024-01-12T02:43:58.337Z,0.33
2024-01-12T02:44:31.043Z,0.35
2024-01-12T02:45:02.235Z,0.33
2024-01-12T02:45:34.957Z,0.35
2024-01-12T02:46:07.621Z,0.35
2024-01-12T02:46:34.218Z,0.35
2024-01-12T02:47:06.892Z,0.35
2024-01-12T02:47:39.920Z,0.35
2024-01-12T02:48:12.811Z,0.33
2024-01-12T02:48:45.527Z,0.35
2024-01-12T02:49:18.198Z,0.35
2024-01-12T02:49:50.886Z,0.35
2024-01-12T02:50:23.665Z,0.35
2024-01-12T02:50:56.445Z,0.35
2024-01-12T02:51:29.172Z,0.35
2024-01-12T02:52:01.834Z,0.33
2024-01-12T02:52:34.502Z,0.33
2024-01-12T02:53:07.172Z,0.33
2024-01-12T02:53:39.961Z,0.32
2024-01-12T02:54:10.938Z,0.35
2024-01-12T02:54:46.533Z,0.32
2024-01-12T02:55:14.725Z,0.32
2024-01-12T02:55:47.398Z,0.31
2024-01-12T02:56:20.220Z,0.32
2024-01-12T02:56:52.931Z,0.33
2024-01-12T02:57:25.792Z,0.33
2024-01-12T02:57:58.600Z,0.31
2024-01-12T02:58:31.270Z,0.31
2024-01-12T02:59:03.954Z,0.28
2024-01-12T02:59:36.637Z,0.31
2024-01-12T03:00:09.448Z,0.32
2024-01-12T03:00:42.173Z,0.31
2024-01-12T03:01:14.877Z,0.28
2024-01-12T03:01:47.513Z,0.31
2024-01-12T03:02:20.214Z,0.31
2024-01-12T03:02:53.176Z,0.29
2024-01-12T03:03:26.086Z,0.29
2024-01-12T03:03:58.798Z,0.29
2024-01-12T03:04:31.461Z,0.29
2024-01-12T03:05:04.224Z,0.29
2024-01-12T03:05:37.003Z,0.29
2024-01-12T03:06:09.901Z,0.29
2024-01-12T03:06:42.732Z,0.29
2024-01-12T03:07:15.475Z,0.31
2024-01-12T03:07:48.157Z,0.28
2024-01-12T03:08:20.860Z,0.29
2024-01-12T03:08:53.577Z,0.29
2024-01-12T03:09:26.235Z,0.29
2024-01-12T03:09:58.913Z,0.29
2024-01-12T03:10:31.613Z,0.29
2024-01-12T03:11:04.288Z,0.28
2024-01-12T03:11:35.434Z,0.29
2024-01-12T03:12:08.162Z,0.29
2024-01-12T03:12:40.810Z,0.29
2024-01-12T03:13:13.486Z,0.29
2024-01-12T03:13:46.159Z,0.29
2024-01-12T03:14:18.908Z,0.26
2024-01-12T03:14:51.655Z,0.28
2024-01-12T03:15:24.302Z,0.26
2024-01-12T03:15:56.969Z,0.28
2024-01-12T03:16:29.686Z,0.26
2024-01-12T03:17:02.348Z,0.26
2024-01-12T03:17:35.158Z,0.26
2024-01-12T03:18:07.937Z,0.28
2024-01-12T03:18:40.730Z,0.24
2024-01-12T03:19:13.606Z,0.24
2024-01-12T03:19:46.341Z,0.23
2024-01-12T03:20:19.061Z,0.23
2024-01-12T03:20:51.807Z,0.23
2024-01-12T03:21:24.508Z,0.23
2024-01-12T03:21:57.175Z,0.21
2024-01-12T03:22:29.829Z,0.23
2024-01-12T03:23:02.493Z,0.23
2024-01-12T03:23:35.342Z,0.23
2024-01-12T03:24:08.016Z,0.21
2024-01-12T03:24:40.881Z,0.23
2024-01-12T03:25:13.557Z,0.21
2024-01-12T03:25:46.226Z,0.21
2024-01-12T03:26:18.996Z,0.24
2024-01-12T03:26:51.693Z,0.23
2024-01-12T03:27:24.380Z,0.23
2024-01-12T03:27:57.054Z,0.23
2024-01-12T03:28:29.736Z,0.21
2024-01-12T03:29:02.429Z,0.20
2024-01-12T03:29:35.167Z,0.23
2024-01-12T03:30:07.958Z,0.21
2024-01-12T03:30:40.704Z,0.21
2024-01-12T03:31:14.619Z,0.21
2024-01-12T03:31:42.082Z,0.21
2024-01-12T03:32:14.787Z,0.23
2024-01-12T03:32:47.638Z,0.23
2024-01-12T03:33:20.521Z,0.21
2024-01-12T03:33:53.524Z,0.24
2024-01-12T03:34:19.933Z,0.23
2024-01-12T03:34:52.810Z,0.24
2024-01-12T03:35:25.516Z,0.23
2024-01-12T03:35:58.309Z,0.24
2024-01-12T03:36:31.029Z,0.24
2024-01-12T03:36:57.718Z,0.24
2024-01-12T03:37:30.369Z,0.24
2024-01-12T03:38:03.036Z,0.23
2024-01-12T03:38:35.755Z,0.24
2024-01-12T03:39:08.469Z,0.24
2024-01-12T03:39:41.128Z,0.21
2024-01-12T03:40:13.799Z,0.23
2024-01-12T03:40:46.456Z,0.23
2024-01-12T03:41:19.179Z,0.23
2024-01-12T03:41:51.916Z,0.21
2024-01-12T03:42:24.621Z,0.20
2024-01-12T03:42:57.278Z,0.20
2024-01-12T03:43:29.957Z,0.18
2024-01-12T03:44:02.641Z,0.20
2024-01-12T03:44:35.359Z,0.20
2024-01-12T03:45:08.094Z,0.20
2024-01-12T03:45:40.772Z,0.18
2024-01-12T03:46:13.452Z,0.18
2024-01-12T03:46:46.159Z,0.20
2024-01-12T03:47:18.844Z,0.20
2024-01-12T03:47:51.707Z,0.20
2024-01-12T03:48:24.576Z,0.17
2024-01-12T03:48:57.419Z,0.18
2024-01-12T03:49:30.182Z,0.18
2024-01-12T03:49:56.726Z,0.18
2024-01-12T03:50:29.432Z,0.18
2024-01-12T03:51:02.314Z,0.17
2024-01-12T03:51:35.039Z,0.15
2024-01-12T03:52:14.621Z,0.15
2024-01-12T03:52:33.721Z,0.15
2024-01-12T03:52:59.895Z,0.14
2024-01-12T03:53:32.601Z,0.15
2024-01-12T03:54:05.318Z,0.15
2024-01-12T03:54:38.168Z,0.15
2024-01-12T03:55:10.867Z,0.14
2024-01-12T03:55:43.526Z,0.15
2024-01-12T03:56:16.252Z,0.15
2024-01-12T03:56:48.952Z,0.14
2024-01-12T03:57:21.600Z,0.14
2024-01-12T03:57:54.280Z,0.13
2024-01-12T03:58:26.961Z,0.13
2024-01-12T03:58:59.610Z,0.11
2024-01-12T03:59:32.334Z,0.13
2024-01-12T04:00:05.040Z,0.14
2024-01-12T04:00:37.734Z,0.11
2024-01-12T04:01:10.393Z,0.11
2024-01-12T04:01:43.088Z,0.10
2024-01-12T04:02:15.787Z,0.10
2024-01-12T04:02:48.549Z,0.10
2024-01-12T04:03:21.290Z,0.10
2024-01-12T04:03:54.026Z,0.08
2024-01-12T04:04:26.685Z,0.08
2024-01-12T04:04:59.384Z,0.08
2024-01-12T04:05:32.123Z,0.04
2024-01-12T04:06:04.909Z,0.04
2024-01-12T04:06:37.726Z,0.07
2024-01-12T04:07:10.547Z,0.07
2024-01-12T04:07:43.241Z,0.07
2024-01-12T04:08:15.983Z,0.07
2024-01-12T04:08:48.783Z,0.03
2024-01-12T04:09:21.448Z,0.03
2024-01-12T04:09:54.255Z,0.07
2024-01-12T04:10:26.934Z,0.03
2024-01-12T04:10:59.604Z,0.04
2024-01-12T04:11:32.361Z,0.04
2024-01-12T04:12:05.243Z,0.07
2024-01-12T04:12:37.933Z,0.04
2024-01-12T04:13:10.602Z,0.04
2024-01-12T04:13:43.270Z,0.03
2024-01-12T04:14:16.006Z,0.03
2024-01-12T04:14:48.730Z,0.04
2024-01-12T04:15:21.374Z,0.07
2024-01-12T04:15:54.047Z,0.07
2024-01-12T04:16:26.727Z,0.04
2024-01-12T04:16:59.391Z,0.03
2024-01-12T04:17:32.149Z,0.07
2024-01-12T04:18:04.990Z,0.03
2024-01-12T04:18:37.927Z,0.08
2024-01-12T04:19:10.733Z,0.04
2024-01-12T04:19:43.580Z,0.07
2024-01-12T04:20:16.354Z,0.07
2024-01-12T04:20:49.151Z,0.04
2024-01-12T04:21:21.894Z,0.07
2024-01-12T04:21:54.558Z,0.07
2024-01-12T04:22:27.253Z,0.08
2024-01-12T04:22:59.906Z,0.04
2024-01-12T04:23:32.637Z,0.08
2024-01-12T04:24:05.363Z,0.10
2024-01-12T04:24:31.984Z,0.08
2024-01-12T04:25:04.644Z,0.08
2024-01-12T04:25:37.312Z,0.08
2024-01-12T04:26:10.027Z,0.07
2024-01-12T04:26:42.837Z,0.08
2024-01-12T04:27:15.630Z,0.07
2024-01-12T04:27:48.346Z,0.07
2024-01-12T04:28:21.022Z,0.07
2024-01-12T04:28:53.688Z,0.08
2024-01-12T04:29:26.368Z,0.04
2024-01-12T04:29:59.105Z,0.07
2024-01-12T04:30:31.775Z,0.04
2024-01-12T04:31:04.816Z,0.04
2024-01-12T04:31:37.555Z,0.04
2024-01-12T04:32:10.217Z,0.04
2024-01-12T04:32:43.013Z,0.07
2024-01-12T04:33:15.892Z,0.07
2024-01-12T04:33:48.931Z,0.07
2024-01-12T04:34:19.856Z,0.04
2024-01-12T04:34:52.616Z,0.07
2024-01-12T04:35:25.319Z,0.08
2024-01-12T04:35:58.133Z,0.07
2024-01-12T04:36:30.795Z,0.10
2024-01-12T04:37:03.465Z,0.10
2024-01-12T04:37:36.175Z,0.10
2024-01-12T04:38:08.858Z,0.10
2024-01-12T04:38:41.557Z,0.08
2024-01-12T04:39:14.238Z,0.11
2024-01-12T04:39:46.922Z,0.11
2024-01-12T04:40:19.606Z,0.13
2024-01-12T04:40:52.257Z,0.13
2024-01-12T04:41:24.968Z,0.11
2024-01-12T04:41:57.770Z,0.11
2024-01-12T04:42:30.515Z,0.11
2024-01-12T04:43:03.191Z,0.10
2024-01-12T04:43:35.856Z,0.10
2024-01-12T04:44:08.530Z,0.10
2024-01-12T04:44:41.240Z,0.07
2024-01-12T04:45:13.908Z,0.08
2024-01-12T04:45:46.585Z,0.07
2024-01-12T04:46:19.244Z,0.07
2024-01-12T04:46:51.925Z,0.07
2024-01-12T04:47:24.603Z,0.07
2024-01-12T04:47:57.482Z,0.07
2024-01-12T04:48:30.428Z,0.07
2024-01-12T04:49:03.247Z,0.04
2024-01-12T04:49:35.973Z,0.07
2024-01-12T04:50:08.642Z,0.08
2024-01-12T04:50:41.325Z,0.04
2024-01-12T04:51:13.979Z,0.04
2024-01-12T04:51:46.646Z,0.07
2024-01-12T04:52:19.326Z,0.07
2024-01-12T04:52:52.002Z,0.04
2024-01-12T04:53:25.768Z,0.03
2024-01-12T04:53:52.206Z,0.07
2024-01-12T04:54:24.879Z,0.02
2024-01-12T04:54:55.983Z,0.04
2024-01-12T04:55:28.666Z,0.03
2024-01-12T04:56:01.333Z,0.04
2024-01-12T04:56:34.016Z,0.03
2024-01-12T04:57:06.716Z,0.02
2024-01-12T04:57:39.406Z,0.00
2024-01-12T04:58:12.072Z,0.00
2024-01-12T04:58:44.752Z,0.04
2024-01-12T04:59:17.457Z,0.02
2024-01-12T04:59:50.199Z,0.03
2024-01-12T05:00:21.245Z,0.02
2024-01-12T05:00:54.005Z,0.03
2024-01-12T05:01:26.744Z,0.04
2024-01-12T05:01:59.412Z,0.04
2024-01-12T05:02:32.146Z,0.03
2024-01-12T05:03:04.923Z,0.04
2024-01-12T05:03:37.710Z,0.04
2024-01-12T05:04:10.470Z,0.04
2024-01-12T05:04:43.185Z,0.07
2024-01-12T05:05:15.944Z,0.04
2024-01-12T05:05:48.809Z,0.04
2024-01-12T05:06:21.710Z,0.08
2024-01-12T05:06:54.462Z,0.03
2024-01-12T05:07:27.134Z,0.07
2024-01-12T05:07:59.847Z,0.04
2024-01-12T05:08:32.495Z,0.04
2024-01-12T05:09:05.233Z,0.07
2024-01-12T05:09:38.108Z,0.07
2024-01-12T05:10:10.816Z,0.08
2024-01-12T05:10:43.517Z,0.07
2024-01-12T05:11:16.168Z,0.08
2024-01-12T05:11:48.859Z,0.07
2024-01-12T05:12:21.497Z,0.08
2024-01-12T05:12:54.170Z,0.08
2024-01-12T05:13:26.830Z,0.10
2024-01-12T05:13:59.517Z,0.11
2024-01-12T05:14:32.201Z,0.10
2024-01-12T05:15:04.932Z,0.11
2024-01-12T05:15:37.593Z,0.11
2024-01-12T05:16:10.275Z,0.14
2024-01-12T05:16:42.928Z,0.11
2024-01-12T05:17:15.627Z,0.13
2024-01-12T05:17:48.553Z,0.11
2024-01-12T05:18:21.393Z,0.13
2024-01-12T05:18:54.372Z,0.11
2024-01-12T05:19:25.319Z,0.13
2024-01-12T05:19:58.018Z,0.11
2024-01-12T05:20:30.769Z,0.13
2024-01-12T05:21:03.551Z,0.11
2024-01-12T05:21:36.226Z,0.08
2024-01-12T05:22:08.887Z,0.08
2024-01-12T05:22:41.577Z,0.10
2024-01-12T05:23:14.366Z,0.07
2024-01-12T05:23:47.090Z,0.07
2024-01-12T05:24:19.738Z,0.04
2024-01-12T05:24:52.431Z,0.08
2024-01-12T05:25:25.183Z,0.07
2024-01-12T05:25:57.836Z,0.04
2024-01-12T05:26:30.553Z,0.07
2024-01-12T05:27:03.325Z,0.07
2024-01-12T05:27:36.028Z,0.08
2024-01-12T05:28:08.704Z,0.04
2024-01-12T05:28:41.370Z,0.07
2024-01-12T05:29:14.047Z,0.08
2024-01-12T05:29:46.797Z,0.07
2024-01-12T05:30:19.708Z,0.07
2024-01-12T05:30:52.549Z,0.08
2024-01-12T05:31:25.263Z,0.04
2024-01-12T05:31:57.940Z,0.08
2024-01-12T05:32:30.723Z,0.04
2024-01-12T05:33:03.597Z,0.10
2024-01-12T05:33:36.426Z,0.08
2024-01-12T05:34:09.284Z,0.08
2024-01-12T05:34:42.105Z,0.08
2024-01-12T05:35:16.037Z,0.08
2024-01-12T05:35:42.651Z,0.08
2024-01-12T05:36:15.313Z,0.07
2024-01-12T05:36:48.004Z,0.08
2024-01-12T05:37:20.664Z,0.10
2024-01-12T05:37:53.329Z,0.08
2024-01-12T05:38:26.074Z,0.08
2024-01-12T05:38:58.824Z,0.08
2024-01-12T05:39:31.511Z,0.04
2024-01-12T05:40:04.193Z,0.08
2024-01-12T05:40:36.858Z,0.08
2024-01-12T05:41:07.966Z,0.07
2024-01-12T05:41:40.652Z,0.07
2024-01-12T05:42:13.293Z,0.04
2024-01-12T05:42:46.004Z,0.07
2024-01-12T05:43:18.663Z,0.04
2024-01-12T05:43:51.342Z,0.07
2024-01-12T05:44:24.021Z,0.03
2024-01-12T05:44:56.767Z,0.04
2024-01-12T05:45:29.448Z,0.02
2024-01-12T05:46:02.117Z,0.03
2024-01-12T05:46:34.777Z,0.03
2024-01-12T05:47:07.449Z,0.02
2024-01-12T05:47:40.355Z,0.00
2024-01-12T05:48:13.188Z,0.02
2024-01-12T05:48:46.099Z,0.00
2024-01-12T05:49:18.861Z,0.00
2024-01-12T05:49:51.652Z,0.00
2024-01-12T05:50:24.345Z,-0.01
2024-01-12T05:50:57.068Z,0.00
2024-01-12T05:51:29.715Z,0.00
2024-01-12T05:52:02.380Z,0.00
2024-01-12T05:52:35.048Z,0.02
2024-01-12T05:53:07.718Z,-0.01
2024-01-12T05:53:40.588Z,-0.01
2024-01-12T05:54:13.264Z,-0.04
2024-01-12T05:54:45.912Z,-0.03
2024-01-12T05:55:18.584Z,-0.04
2024-01-12T05:55:51.287Z,-0.05
2024-01-12T05:56:23.990Z,-0.08
2024-01-12T05:56:56.679Z,-0.05
2024-01-12T05:57:29.596Z,-0.05
2024-01-12T05:58:00.700Z,-0.07
2024-01-12T05:58:33.371Z,-0.08
2024-01-12T05:59:06.051Z,-0.08
2024-01-12T05:59:38.780Z,-0.11
2024-01-12T06:00:11.458Z,-0.11
2024-01-12T06:00:44.242Z,-0.14
2024-01-12T06:01:16.919Z,-0.14
2024-01-12T06:01:49.623Z,-0.11
2024-01-12T06:02:22.273Z,-0.16
2024-01-12T06:02:53.387Z,-0.14
2024-01-12T06:03:26.073Z,-0.15
2024-01-12T06:03:58.790Z,-0.16
2024-01-12T06:04:31.441Z,-0.16
2024-01-12T06:05:04.156Z,-0.16
2024-01-12T06:05:36.963Z,-0.16
2024-01-12T06:06:09.714Z,-0.18
2024-01-12T06:06:42.570Z,-0.18
2024-01-12T06:07:15.328Z,-0.19
2024-01-12T06:07:47.985Z,-0.19
2024-01-12T06:08:20.688Z,-0.18
2024-01-12T06:08:53.410Z,-0.19
2024-01-12T06:09:26.075Z,-0.16
2024-01-12T06:09:58.741Z,-0.21
2024-01-12T06:10:31.441Z,-0.19
2024-01-12T06:11:04.148Z,-0.19
2024-01-12T06:11:36.832Z,-0.19
2024-01-12T06:12:07.929Z,-0.19
2024-01-12T06:12:38.977Z,-0.18
2024-01-12T06:13:11.649Z,-0.18
2024-01-12T06:13:44.297Z,-0.18
2024-01-12T06:14:17.101Z,-0.21
2024-01-12T06:14:49.851Z,-0.19
2024-01-12T06:15:22.546Z,-0.19
2024-01-12T06:15:56.782Z,-0.19
2024-01-12T06:16:23.724Z,-0.19
2024-01-12T06:16:56.404Z,-0.18
2024-01-12T06:17:29.191Z,-0.18
2024-01-12T06:18:02.027Z,-0.19
2024-01-12T06:18:35.024Z,-0.16
2024-01-12T06:19:01.382Z,-0.18
2024-01-12T06:19:34.378Z,-0.16
2024-01-12T06:20:07.084Z,-0.15
2024-01-12T06:20:39.804Z,-0.15
2024-01-12T06:21:12.608Z,-0.14
2024-01-12T06:21:45.358Z,-0.15
2024-01-12T06:22:18.032Z,-0.11
2024-01-12T06:22:50.706Z,-0.11
2024-01-12T06:23:23.392Z,-0.11
2024-01-12T06:23:56.139Z,-0.11
2024-01-12T06:24:28.791Z,-0.08
2024-01-12T06:25:01.462Z,-0.10
2024-01-12T06:25:34.263Z,-0.08
2024-01-12T06:26:06.911Z,-0.10
2024-01-12T06:26:39.633Z,-0.10
2024-01-12T06:27:12.408Z,-0.14
2024-01-12T06:27:45.092Z,-0.08
2024-01-12T06:28:17.770Z,-0.15
2024-01-12T06:28:50.444Z,-0.16
2024-01-12T06:29:23.140Z,-0.19
2024-01-12T06:29:55.834Z,-0.21
2024-01-12T06:30:28.580Z,-0.22
2024-01-12T06:30:55.210Z,-0.22
2024-01-12T06:31:28.010Z,-0.23
2024-01-12T06:32:00.694Z,-0.25
2024-01-12T06:32:33.414Z,-0.25
2024-01-12T06:33:06.263Z,-0.23
2024-01-12T06:33:39.057Z,-0.25
2024-01-12T06:34:11.831Z,-0.26
2024-01-12T06:34:44.516Z,-0.28
2024-01-12T06:35:17.211Z,-0.25
2024-01-12T06:35:49.977Z,-0.29
2024-01-12T06:36:22.648Z,-0.29
2024-01-12T06:36:55.316Z,-0.29
2024-01-12T06:37:27.995Z,-0.29
2024-01-12T06:38:00.660Z,-0.29
2024-01-12T06:38:33.376Z,-0.33
2024-01-12T06:39:06.220Z,-0.29
2024-01-12T06:39:38.936Z,-0.31
2024-01-12T06:40:11.632Z,-0.29
2024-01-12T06:40:44.289Z,-0.33
2024-01-12T06:41:17.074Z,-0.31
2024-01-12T06:41:49.787Z,-0.33
2024-01-12T06:42:22.491Z,-0.31
2024-01-12T06:42:55.244Z,-0.34
2024-01-12T06:43:27.912Z,-0.33
2024-01-12T06:44:00.616Z,-0.34
2024-01-12T06:44:33.313Z,-0.36
2024-01-12T06:45:06.007Z,-0.34
2024-01-12T06:45:38.667Z,-0.34
2024-01-12T06:46:11.389Z,-0.34
2024-01-12T06:46:45.071Z,-0.36
2024-01-12T06:47:15.354Z,-0.34
2024-01-12T06:47:48.194Z,-0.36
2024-01-12T06:48:21.014Z,-0.36
2024-01-12T06:48:53.807Z,-0.36
2024-01-12T06:49:26.504Z,-0.34
2024-01-12T06:49:59.179Z,-0.34
2024-01-12T06:50:31.876Z,-0.37
2024-01-12T06:51:04.696Z,-0.37
2024-01-12T06:51:37.455Z,-0.37
2024-01-12T06:52:10.108Z,-0.37
2024-01-12T06:52:41.199Z,-0.39
2024-01-12T06:53:13.873Z,-0.39
2024-01-12T06:53:46.618Z,-0.39
2024-01-12T06:54:20.410Z,-0.39
2024-01-12T06:54:46.775Z,-0.39
2024-01-12T06:55:19.436Z,-0.40
2024-01-12T06:55:52.131Z,-0.39
2024-01-12T06:56:24.824Z,-0.39
2024-01-12T06:56:57.657Z,-0.39
2024-01-12T06:57:30.465Z,-0.39
2024-01-12T06:58:03.109Z,-0.37
2024-01-12T06:58:35.816Z,-0.39
2024-01-12T06:59:08.484Z,-0.39
2024-01-12T06:59:41.222Z,-0.36
2024-01-12T07:00:14.086Z,-0.36
2024-01-12T07:00:46.891Z,-0.37
2024-01-12T07:01:19.735Z,-0.34
2024-01-12T07:01:52.590Z,-0.36
2024-01-12T07:02:25.357Z,-0.36
2024-01-12T07:02:58.067Z,-0.36
2024-01-12T07:03:30.758Z,-0.37
2024-01-12T07:04:03.505Z,-0.40
2024-01-12T07:04:36.190Z,-0.39
2024-01-12T07:05:08.873Z,-0.40
2024-01-12T07:05:41.601Z,-0.42
2024-01-12T07:06:14.542Z,-0.40
2024-01-12T07:06:47.415Z,-0.42
2024-01-12T07:07:20.280Z,-0.42
2024-01-12T07:07:52.976Z,-0.42
2024-01-12T07:08:25.702Z,-0.44
2024-01-12T07:08:58.400Z,-0.44
2024-01-12T07:09:31.140Z,-0.46
2024-01-12T07:10:03.811Z,-0.46